sensor_id;sensor_type;location;lat;lon;timestamp;pressure;altitude;pressure_sealevel;temperature;humidity
35918;BME280;22011;59.912;30.300;2023-03-26T00:01:05;99623.72;;;4.72;72.75
35918;BME280;22011;59.912;30.300;2023-03-26T00:03:34;99620.09;;;4.73;71.82
35918;BME280;22011;59.912;30.300;2023-03-26T00:06:04;99618.44;;;4.72;72.46
35918;BME280;22011;59.912;30.300;2023-03-26T00:08:32;99603.97;;;4.76;71.89
35918;BME280;22011;59.912;30.300;2023-03-26T00:11:00;99597.38;;;4.80;72.88
35918;BME280;22011;59.912;30.300;2023-03-26T00:13:28;99594.44;;;4.83;72.53
35918;BME280;22011;59.912;30.300;2023-03-26T00:15:57;99595.56;;;4.81;72.01
35918;BME280;22011;59.912;30.300;2023-03-26T00:18:26;99593.13;;;4.87;72.58
35918;BME280;22011;59.912;30.300;2023-03-26T00:20:57;99596.41;;;4.81;71.64
35918;BME280;22011;59.912;30.300;2023-03-26T00:23:26;99597.06;;;4.83;71.73
35918;BME280;22011;59.912;30.300;2023-03-26T00:25:54;99583.88;;;4.83;72.59
35918;BME280;22011;59.912;30.300;2023-03-26T00:28:22;99584.88;;;4.82;72.44
35918;BME280;22011;59.912;30.300;2023-03-26T00:30:56;99570.72;;;4.91;72.94
35918;BME280;22011;59.912;30.300;2023-03-26T00:33:26;99575.50;;;4.88;73.10
35918;BME280;22011;59.912;30.300;2023-03-26T00:35:55;99581.59;;;4.88;72.46
35918;BME280;22011;59.912;30.300;2023-03-26T00:38:24;99575.97;;;4.83;72.87
35918;BME280;22011;59.912;30.300;2023-03-26T00:40:51;99587.19;;;4.85;73.18
35918;BME280;22011;59.912;30.300;2023-03-26T00:43:20;99587.50;;;4.82;73.44
35918;BME280;22011;59.912;30.300;2023-03-26T00:45:50;99591.94;;;4.82;73.40
35918;BME280;22011;59.912;30.300;2023-03-26T00:48:19;99598.19;;;5.07;74.42
35918;BME280;22011;59.912;30.300;2023-03-26T00:50:49;99608.97;;;4.87;73.67
35918;BME280;22011;59.912;30.300;2023-03-26T00:53:17;99617.72;;;4.88;74.15
35918;BME280;22011;59.912;30.300;2023-03-26T00:55:46;99611.59;;;4.87;74.04
35918;BME280;22011;59.912;30.300;2023-03-26T00:58:14;99618.38;;;4.90;75.09
35918;BME280;22011;59.912;30.300;2023-03-26T01:00:45;99622.69;;;4.91;75.42
35918;BME280;22011;59.912;30.300;2023-03-26T01:03:16;99614.41;;;4.86;75.67
35918;BME280;22011;59.912;30.300;2023-03-26T01:05:50;99608.19;;;4.95;76.22
35918;BME280;22011;59.912;30.300;2023-03-26T01:08:23;99600.75;;;4.90;77.15
35918;BME280;22011;59.912;30.300;2023-03-26T01:10:52;99604.69;;;4.86;77.32
35918;BME280;22011;59.912;30.300;2023-03-26T01:13:30;99596.59;;;4.88;77.02
35918;BME280;22011;59.912;30.300;2023-03-26T01:15:59;99602.34;;;4.83;77.22
35918;BME280;22011;59.912;30.300;2023-03-26T01:18:29;99601.88;;;4.88;77.84
35918;BME280;22011;59.912;30.300;2023-03-26T01:21:01;99607.16;;;4.88;77.66
35918;BME280;22011;59.912;30.300;2023-03-26T01:23:39;99591.84;;;4.91;77.44
35918;BME280;22011;59.912;30.300;2023-03-26T01:26:18;99599.13;;;4.98;77.77
35918;BME280;22011;59.912;30.300;2023-03-26T01:28:53;99592.81;;;4.90;76.73
35918;BME280;22011;59.912;30.300;2023-03-26T01:31:25;99587.91;;;4.96;75.96
35918;BME280;22011;59.912;30.300;2023-03-26T01:34:01;99586.75;;;4.98;76.10
35918;BME280;22011;59.912;30.300;2023-03-26T01:36:36;99583.97;;;5.00;76.90
35918;BME280;22011;59.912;30.300;2023-03-26T01:39:08;99594.69;;;4.98;76.31
35918;BME280;22011;59.912;30.300;2023-03-26T01:41:46;99583.63;;;5.03;76.45
35918;BME280;22011;59.912;30.300;2023-03-26T01:44:21;99584.31;;;5.05;77.01
35918;BME280;22011;59.912;30.300;2023-03-26T01:46:52;99574.06;;;5.02;76.50
35918;BME280;22011;59.912;30.300;2023-03-26T01:49:20;99561.69;;;5.02;77.21
35918;BME280;22011;59.912;30.300;2023-03-26T01:51:49;99560.56;;;5.05;78.39
35918;BME280;22011;59.912;30.300;2023-03-26T01:54:19;99566.16;;;5.02;77.52
35918;BME280;22011;59.912;30.300;2023-03-26T01:56:57;99570.97;;;5.14;78.24
35918;BME280;22011;59.912;30.300;2023-03-26T01:59:44;99566.88;;;5.20;78.83
35918;BME280;22011;59.912;30.300;2023-03-26T02:02:22;99576.44;;;5.13;78.09
35918;BME280;22011;59.912;30.300;2023-03-26T02:04:56;99572.63;;;5.15;78.34
35918;BME280;22011;59.912;30.300;2023-03-26T02:07:30;99563.72;;;5.16;77.72
35918;BME280;22011;59.912;30.300;2023-03-26T02:10:07;99567.19;;;5.17;78.08
35918;BME280;22011;59.912;30.300;2023-03-26T02:12:40;99573.78;;;5.13;78.75
35918;BME280;22011;59.912;30.300;2023-03-26T02:15:10;99570.97;;;5.14;78.47
35918;BME280;22011;59.912;30.300;2023-03-26T02:17:38;99570.16;;;5.14;78.47
35918;BME280;22011;59.912;30.300;2023-03-26T02:20:07;99568.34;;;5.14;78.66
35918;BME280;22011;59.912;30.300;2023-03-26T02:22:35;99565.88;;;5.13;79.31
35918;BME280;22011;59.912;30.300;2023-03-26T02:25:08;99565.88;;;5.13;79.65
35918;BME280;22011;59.912;30.300;2023-03-26T02:27:36;99575.75;;;5.11;79.81
35918;BME280;22011;59.912;30.300;2023-03-26T02:30:07;99568.84;;;5.18;80.06
35918;BME280;22011;59.912;30.300;2023-03-26T02:32:36;99570.81;;;5.16;79.29
35918;BME280;22011;59.912;30.300;2023-03-26T02:35:05;99570.16;;;5.14;78.95
35918;BME280;22011;59.912;30.300;2023-03-26T02:37:33;99564.72;;;5.15;79.25
35918;BME280;22011;59.912;30.300;2023-03-26T02:40:09;99570.81;;;5.16;79.45
35918;BME280;22011;59.912;30.300;2023-03-26T02:42:40;99566.84;;;5.12;79.32
35918;BME280;22011;59.912;30.300;2023-03-26T02:45:09;99571.97;;;5.13;80.00
35918;BME280;22011;59.912;30.300;2023-03-26T02:47:49;99568.81;;;5.10;80.19
35918;BME280;22011;59.912;30.300;2023-03-26T02:50:52;99580.22;;;5.10;80.45
35918;BME280;22011;59.912;30.300;2023-03-26T02:53:26;99568.81;;;5.10;80.56
35918;BME280;22011;59.912;30.300;2023-03-26T02:56:08;99570.47;;;5.11;80.82
35918;BME280;22011;59.912;30.300;2023-03-26T02:58:45;99558.25;;;5.10;81.33
35918;BME280;22011;59.912;30.300;2023-03-26T03:01:15;99560.06;;;5.09;81.00
35918;BME280;22011;59.912;30.300;2023-03-26T03:03:50;99559.09;;;5.10;80.66
35918;BME280;22011;59.912;30.300;2023-03-26T03:06:34;99548.53;;;5.10;80.77
35918;BME280;22011;59.912;30.300;2023-03-26T03:09:03;99550.03;;;5.13;81.22
35918;BME280;22011;59.912;30.300;2023-03-26T03:11:37;99550.03;;;5.13;80.82
35918;BME280;22011;59.912;30.300;2023-03-26T03:14:05;99554.31;;;5.14;81.05
35918;BME280;22011;59.912;30.300;2023-03-26T03:16:35;99557.13;;;5.12;80.88
35918;BME280;22011;59.912;30.300;2023-03-26T03:19:06;99558.78;;;5.13;81.14
35918;BME280;22011;59.912;30.300;2023-03-26T03:21:38;99557.94;;;5.13;81.05
35918;BME280;22011;59.912;30.300;2023-03-26T03:24:07;99556.28;;;5.12;80.76
35918;BME280;22011;59.912;30.300;2023-03-26T03:26:42;99557.13;;;5.12;80.98
35918;BME280;22011;59.912;30.300;2023-03-26T03:29:43;99554.00;;;5.17;80.73
35918;BME280;22011;59.912;30.300;2023-03-26T03:32:44;99550.38;;;5.18;80.36
35918;BME280;22011;59.912;30.300;2023-03-26T03:35:13;99548.72;;;5.17;80.53
35918;BME280;22011;59.912;30.300;2023-03-26T03:37:43;99560.97;;;5.42;81.32
35918;BME280;22011;59.912;30.300;2023-03-26T03:40:11;99563.41;;;5.19;80.49
35918;BME280;22011;59.912;30.300;2023-03-26T03:42:39;99556.63;;;5.17;80.20
35918;BME280;22011;59.912;30.300;2023-03-26T03:45:11;99560.78;;;5.19;80.03
35918;BME280;22011;59.912;30.300;2023-03-26T03:47:49;99559.13;;;5.26;80.34
35918;BME280;22011;59.912;30.300;2023-03-26T03:50:22;99553.84;;;5.26;79.78
35918;BME280;22011;59.912;30.300;2023-03-26T03:53:11;99551.53;;;5.32;79.72
35918;BME280;22011;59.912;30.300;2023-03-26T03:55:41;99550.88;;;5.30;80.06
35918;BME280;22011;59.912;30.300;2023-03-26T03:58:20;99546.56;;;5.29;80.37
35918;BME280;22011;59.912;30.300;2023-03-26T04:00:50;99544.75;;;5.29;80.61
35918;BME280;22011;59.912;30.300;2023-03-26T04:03:37;99538.84;;;5.35;80.01
35918;BME280;22011;59.912;30.300;2023-03-26T04:06:10;99531.25;;;5.40;80.31
35918;BME280;22011;59.912;30.300;2023-03-26T04:08:39;99544.63;;;5.39;80.01
35918;BME280;22011;59.912;30.300;2023-03-26T04:11:07;99539.19;;;5.40;80.47
35918;BME280;22011;59.912;30.300;2023-03-26T04:14:07;99559.31;;;5.41;80.06
35918;BME280;22011;59.912;30.300;2023-03-26T04:16:59;99549.75;;;5.40;79.97
35918;BME280;22011;59.912;30.300;2023-03-26T04:19:31;99545.19;;;5.67;81.07
35918;BME280;22011;59.912;30.300;2023-03-26T04:21:59;99539.69;;;5.44;79.88
35918;BME280;22011;59.912;30.300;2023-03-26T04:24:31;99551.91;;;5.45;79.93
35918;BME280;22011;59.912;30.300;2023-03-26T04:27:19;99547.94;;;5.49;79.77
35918;BME280;22011;59.912;30.300;2023-03-26T04:29:51;99551.41;;;5.49;79.64
35918;BME280;22011;59.912;30.300;2023-03-26T04:32:23;99559.34;;;5.49;79.35
35918;BME280;22011;59.912;30.300;2023-03-26T04:34:57;99548.44;;;5.52;79.71
35918;BME280;22011;59.912;30.300;2023-03-26T04:37:29;99547.47;;;5.53;79.26
35918;BME280;22011;59.912;30.300;2023-03-26T04:40:22;99544.81;;;5.53;79.35
35918;BME280;22011;59.912;30.300;2023-03-26T04:43:02;99548.94;;;5.56;79.79
35918;BME280;22011;59.912;30.300;2023-03-26T04:45:50;99544.81;;;5.53;79.20
35918;BME280;22011;59.912;30.300;2023-03-26T04:48:21;99554.41;;;5.54;79.24
35918;BME280;22011;59.912;30.300;2023-03-26T04:50:50;99554.06;;;5.57;78.95
35918;BME280;22011;59.912;30.300;2023-03-26T04:53:19;99543.66;;;5.56;78.70
35918;BME280;22011;59.912;30.300;2023-03-26T04:56:12;99543.53;;;5.66;79.50
35918;BME280;22011;59.912;30.300;2023-03-26T04:59:12;99538.56;;;5.63;79.00
35918;BME280;22011;59.912;30.300;2023-03-26T05:01:42;99539.56;;;5.62;78.89
35918;BME280;22011;59.912;30.300;2023-03-26T05:04:13;99533.09;;;5.56;79.01
35918;BME280;22011;59.912;30.300;2023-03-26T05:06:42;99539.72;;;5.60;79.99
35918;BME280;22011;59.912;30.300;2023-03-26T05:09:21;99541.19;;;5.54;79.00
35918;BME280;22011;59.912;30.300;2023-03-26T05:12:07;99543.66;;;5.56;79.51
35918;BME280;22011;59.912;30.300;2023-03-26T05:14:48;99547.31;;;5.55;79.43
35918;BME280;22011;59.912;30.300;2023-03-26T05:17:23;99552.25;;;5.58;79.63
35918;BME280;22011;59.912;30.300;2023-03-26T05:19:51;99546.81;;;5.59;79.86
35918;BME280;22011;59.912;30.300;2023-03-26T05:22:20;99543.03;;;5.62;79.71
35918;BME280;22011;59.912;30.300;2023-03-26T05:25:08;99539.22;;;5.65;79.65
35918;BME280;22011;59.912;30.300;2023-03-26T05:27:36;99543.53;;;5.66;78.91
35918;BME280;22011;59.912;30.300;2023-03-26T05:30:05;99544.53;;;5.73;79.09
35918;BME280;22011;59.912;30.300;2023-03-26T05:32:41;99550.63;;;5.73;79.68
35918;BME280;22011;59.912;30.300;2023-03-26T05:35:09;99552.28;;;5.74;79.54
35918;BME280;22011;59.912;30.300;2023-03-26T05:37:39;99546.66;;;5.77;79.42
35918;BME280;22011;59.912;30.300;2023-03-26T05:40:10;99553.44;;;5.80;79.62
35918;BME280;22011;59.912;30.300;2023-03-26T05:42:47;99557.75;;;5.81;79.04
35918;BME280;22011;59.912;30.300;2023-03-26T05:45:48;99556.91;;;5.80;79.09
35918;BME280;22011;59.912;30.300;2023-03-26T05:48:22;99553.13;;;5.83;79.48
35918;BME280;22011;59.912;30.300;2023-03-26T05:50:50;99550.47;;;5.83;79.16
35918;BME280;22011;59.912;30.300;2023-03-26T05:53:21;99548.16;;;5.88;79.37
35918;BME280;22011;59.912;30.300;2023-03-26T05:56:08;99550.69;;;5.89;79.24
35918;BME280;22011;59.912;30.300;2023-03-26T05:58:55;99555.81;;;5.91;79.08
35918;BME280;22011;59.912;30.300;2023-03-26T06:01:41;99555.81;;;5.91;78.91
35918;BME280;22011;59.912;30.300;2023-03-26T06:04:33;99554.81;;;5.92;79.52
35918;BME280;22011;59.912;30.300;2023-03-26T06:07:31;99555.63;;;5.93;79.37
35918;BME280;22011;59.912;30.300;2023-03-26T06:10:26;99553.66;;;5.95;79.21
35918;BME280;22011;59.912;30.300;2023-03-26T06:12:53;99560.94;;;5.93;78.87
35918;BME280;22011;59.912;30.300;2023-03-26T06:15:22;99555.63;;;5.93;79.09
35918;BME280;22011;59.912;30.300;2023-03-26T06:18:13;99559.94;;;5.94;79.05
35918;BME280;22011;59.912;30.300;2023-03-26T06:20:51;99566.72;;;5.96;79.16
35918;BME280;22011;59.912;30.300;2023-03-26T06:23:27;99568.38;;;5.97;78.46
35918;BME280;22011;59.912;30.300;2023-03-26T06:26:22;99566.38;;;6.07;78.34
35918;BME280;22011;59.912;30.300;2023-03-26T06:29:03;99561.25;;;6.14;77.95
35918;BME280;22011;59.912;30.300;2023-03-26T06:31:38;99568.03;;;6.16;78.67
35918;BME280;22011;59.912;30.300;2023-03-26T06:34:21;99564.41;;;6.17;78.57
35918;BME280;22011;59.912;30.300;2023-03-26T06:36:49;99563.56;;;6.17;78.76
35918;BME280;22011;59.912;30.300;2023-03-26T06:39:19;99565.38;;;6.16;78.72
35918;BME280;22011;59.912;30.300;2023-03-26T06:42:11;99564.22;;;6.19;79.46
35918;BME280;22011;59.912;30.300;2023-03-26T06:44:59;99562.75;;;6.16;79.10
35918;BME280;22011;59.912;30.300;2023-03-26T06:47:33;99553.66;;;6.19;78.61
35918;BME280;22011;59.912;30.300;2023-03-26T06:50:27;99554.31;;;6.21;78.96
35918;BME280;22011;59.912;30.300;2023-03-26T06:53:10;99559.59;;;6.21;79.08
35918;BME280;22011;59.912;30.300;2023-03-26T06:56:08;99564.53;;;6.24;79.71
35918;BME280;22011;59.912;30.300;2023-03-26T06:59:00;99553.44;;;6.29;79.68
35918;BME280;22011;59.912;30.300;2023-03-26T07:01:30;99553.28;;;6.30;79.83
35918;BME280;22011;59.912;30.300;2023-03-26T07:04:16;99557.75;;;6.30;79.29
35918;BME280;22011;59.912;30.300;2023-03-26T07:07:12;99566.00;;;6.35;79.48
35918;BME280;22011;59.912;30.300;2023-03-26T07:09:59;99567.16;;;6.40;78.96
35918;BME280;22011;59.912;30.300;2023-03-26T07:12:44;99569.81;;;6.40;79.10
35918;BME280;22011;59.912;30.300;2023-03-26T07:15:22;99570.13;;;6.45;79.41
35918;BME280;22011;59.912;30.300;2023-03-26T07:18:12;99576.75;;;6.41;79.34
35918;BME280;22011;59.912;30.300;2023-03-26T07:20:43;99582.03;;;6.41;79.26
35918;BME280;22011;59.912;30.300;2023-03-26T07:23:11;99575.44;;;6.37;79.12
35918;BME280;22011;59.912;30.300;2023-03-26T07:26:24;99577.41;;;6.51;79.87
35918;BME280;22011;59.912;30.300;2023-03-26T07:29:06;99584.69;;;6.41;79.08
35918;BME280;22011;59.912;30.300;2023-03-26T07:32:22;99582.53;;;6.45;79.27
35918;BME280;22011;59.912;30.300;2023-03-26T07:34:54;99585.34;;;6.43;79.27
35918;BME280;22011;59.912;30.300;2023-03-26T07:37:39;99591.47;;;6.44;79.39
35918;BME280;22011;59.912;30.300;2023-03-26T07:40:24;99584.38;;;6.36;79.06
35918;BME280;22011;59.912;30.300;2023-03-26T07:43:53;99595.78;;;6.37;79.30
35918;BME280;22011;59.912;30.300;2023-03-26T07:46:42;99588.69;;;6.13;78.25
35918;BME280;22011;59.912;30.300;2023-03-26T07:49:33;99584.22;;;6.13;78.02
35918;BME280;22011;59.912;30.300;2023-03-26T07:52:38;99596.47;;;6.06;77.40
35918;BME280;22011;59.912;30.300;2023-03-26T07:55:19;99599.75;;;6.08;77.49
35918;BME280;22011;59.912;30.300;2023-03-26T07:58:15;99596.13;;;6.09;78.48
35918;BME280;22011;59.912;30.300;2023-03-26T08:01:14;99598.09;;;5.99;78.49
35918;BME280;22011;59.912;30.300;2023-03-26T08:04:09;99591.66;;;5.94;78.17
35918;BME280;22011;59.912;30.300;2023-03-26T08:07:15;99598.56;;;5.86;77.97
35918;BME280;22011;59.912;30.300;2023-03-26T08:10:22;99596.75;;;5.87;77.77
35918;BME280;22011;59.912;30.300;2023-03-26T08:13:09;99598.44;;;5.96;77.56
35918;BME280;22011;59.912;30.300;2023-03-26T08:15:48;99592.16;;;5.89;77.23
35918;BME280;22011;59.912;30.300;2023-03-26T08:18:25;99599.09;;;5.90;76.87
35918;BME280;22011;59.912;30.300;2023-03-26T08:20:59;99609.97;;;5.87;76.30
35918;BME280;22011;59.912;30.300;2023-03-26T08:23:34;99610.66;;;5.89;77.70
35918;BME280;22011;59.912;30.300;2023-03-26T08:26:08;99614.75;;;5.83;76.86
35918;BME280;22011;59.912;30.300;2023-03-26T08:28:51;99617.22;;;5.85;77.56
35918;BME280;22011;59.912;30.300;2023-03-26T08:31:28;99624.47;;;5.75;76.73
35918;BME280;22011;59.912;30.300;2023-03-26T08:33:59;99628.75;;;5.68;77.33
35918;BME280;22011;59.912;30.300;2023-03-26T08:36:27;99629.56;;;5.68;77.86
35918;BME280;22011;59.912;30.300;2023-03-26T08:38:58;99634.03;;;5.68;77.06
35918;BME280;22011;59.912;30.300;2023-03-26T08:42:05;99622.50;;;5.85;78.24
35918;BME280;22011;59.912;30.300;2023-03-26T08:48:15;99620.19;;;5.82;77.84
35918;BME280;22011;59.912;30.300;2023-03-26T08:51:22;99623.97;;;5.79;77.28
35918;BME280;22011;59.912;30.300;2023-03-26T08:57:06;99624.28;;;5.68;77.77
35918;BME280;22011;59.912;30.300;2023-03-26T09:12:08;99622.78;;;5.57;78.73
35918;BME280;22011;59.912;30.300;2023-03-26T09:15:02;99626.56;;;5.55;78.78
35918;BME280;22011;59.912;30.300;2023-03-26T09:21:31;99626.38;;;5.48;79.47
35918;BME280;22011;59.912;30.300;2023-03-26T09:24:26;99611.00;;;5.44;79.81
35918;BME280;22011;59.912;30.300;2023-03-26T09:27:10;99609.19;;;5.44;79.46
35918;BME280;22011;59.912;30.300;2023-03-26T09:33:23;99626.38;;;5.48;80.00
35918;BME280;22011;59.912;30.300;2023-03-26T09:36:15;99620.41;;;5.38;79.78
35918;BME280;22011;59.912;30.300;2023-03-26T09:38:50;99626.50;;;5.39;79.67
35918;BME280;22011;59.912;30.300;2023-03-26T09:41:29;99625.03;;;5.44;78.75
35918;BME280;22011;59.912;30.300;2023-03-26T09:47:29;99629.19;;;5.55;79.75
35918;BME280;22011;59.912;30.300;2023-03-26T09:50:22;99634.31;;;5.56;79.44
35918;BME280;22011;59.912;30.300;2023-03-26T09:53:04;99640.31;;;5.67;79.71
35918;BME280;22011;59.912;30.300;2023-03-26T09:55:52;99635.84;;;5.67;79.40
35918;BME280;22011;59.912;30.300;2023-03-26T09:58:46;99634.84;;;5.68;78.87
35918;BME280;22011;59.912;30.300;2023-03-26T10:01:26;99638.97;;;5.63;78.35
35918;BME280;22011;59.912;30.300;2023-03-26T10:04:32;99641.63;;;5.71;78.66
35918;BME280;22011;59.912;30.300;2023-03-26T10:07:08;99635.97;;;5.57;78.76
35918;BME280;22011;59.912;30.300;2023-03-26T10:09:50;99634.84;;;5.60;78.98
35918;BME280;22011;59.912;30.300;2023-03-26T10:12:24;99635.50;;;5.62;78.97
35918;BME280;22011;59.912;30.300;2023-03-26T10:15:02;99637.50;;;5.68;78.35
35918;BME280;22011;59.912;30.300;2023-03-26T10:17:42;99639.31;;;5.68;78.19
35918;BME280;22011;59.912;30.300;2023-03-26T10:20:31;99640.31;;;5.67;78.22
35918;BME280;22011;59.912;30.300;2023-03-26T10:23:12;99646.56;;;5.57;78.05
35918;BME280;22011;59.912;30.300;2023-03-26T10:25:57;99642.91;;;5.50;77.62
35918;BME280;22011;59.912;30.300;2023-03-26T10:28:56;99638.31;;;5.61;78.29
35918;BME280;22011;59.912;30.300;2023-03-26T10:31:38;99640.31;;;5.67;78.05
35918;BME280;22011;59.912;30.300;2023-03-26T10:34:21;99640.31;;;5.75;78.08
35918;BME280;22011;59.912;30.300;2023-03-26T10:37:00;99634.69;;;5.70;77.01
35918;BME280;22011;59.912;30.300;2023-03-26T10:45:27;99642.66;;;5.78;76.94
35918;BME280;22011;59.912;30.300;2023-03-26T10:48:29;99648.59;;;5.72;77.19
35918;BME280;22011;59.912;30.300;2023-03-26T10:51:26;99649.88;;;5.68;77.54
35918;BME280;22011;59.912;30.300;2023-03-26T10:54:05;99654.97;;;5.53;77.34
35918;BME280;22011;59.912;30.300;2023-03-26T10:56:38;99656.94;;;5.51;76.47
35918;BME280;22011;59.912;30.300;2023-03-26T10:59:10;99643.25;;;5.55;77.03
35918;BME280;22011;59.912;30.300;2023-03-26T11:01:42;99650.53;;;5.62;76.78
35918;BME280;22011;59.912;30.300;2023-03-26T11:04:23;99642.97;;;5.75;76.59
35918;BME280;22011;59.912;30.300;2023-03-26T11:07:01;99651.56;;;5.77;76.15
35918;BME280;22011;59.912;30.300;2023-03-26T11:09:39;99653.22;;;5.78;75.33
35918;BME280;22011;59.912;30.300;2023-03-26T11:12:17;99655.34;;;5.74;76.12
35918;BME280;22011;59.912;30.300;2023-03-26T11:14:51;99653.16;;;5.62;75.74
35918;BME280;22011;59.912;30.300;2023-03-26T11:17:30;99653.69;;;5.65;75.77
35918;BME280;22011;59.912;30.300;2023-03-26T11:20:04;99658.47;;;5.62;76.13
35918;BME280;22011;59.912;30.300;2023-03-26T11:22:40;99655.16;;;5.59;76.49
35918;BME280;22011;59.912;30.300;2023-03-26T11:25:24;99653.03;;;5.71;76.11
35918;BME280;22011;59.912;30.300;2023-03-26T11:28:02;99654.19;;;5.69;75.66
35918;BME280;22011;59.912;30.300;2023-03-26T11:30:39;99654.81;;;5.63;76.16
35918;BME280;22011;59.912;30.300;2023-03-26T11:33:12;99663.75;;;5.62;75.99
35918;BME280;22011;59.912;30.300;2023-03-26T11:35:45;99665.41;;;5.63;75.34
35918;BME280;22011;59.912;30.300;2023-03-26T11:38:18;99660.63;;;5.66;75.82
35918;BME280;22011;59.912;30.300;2023-03-26T11:40:51;99653.81;;;5.55;75.83
35918;BME280;22011;59.912;30.300;2023-03-26T11:43:44;99654.44;;;5.49;75.24
35918;BME280;22011;59.912;30.300;2023-03-26T11:46:17;99655.31;;;5.58;75.39
35918;BME280;22011;59.912;30.300;2023-03-26T11:48:49;99653.16;;;5.62;75.01
35918;BME280;22011;59.912;30.300;2023-03-26T11:51:29;99656.84;;;5.77;75.56
35918;BME280;22011;59.912;30.300;2023-03-26T11:53:58;99652.38;;;5.69;74.15
35918;BME280;22011;59.912;30.300;2023-03-26T11:56:31;99654.38;;;5.75;74.34
35918;BME280;22011;59.912;30.300;2023-03-26T11:59:02;99657.50;;;5.71;74.06
35918;BME280;22011;59.912;30.300;2023-03-26T12:01:46;99656.03;;;5.76;75.13
35918;BME280;22011;59.912;30.300;2023-03-26T12:04:17;99660.44;;;5.59;75.10
35918;BME280;22011;59.912;30.300;2023-03-26T12:06:53;99659.13;;;5.64;75.70
35918;BME280;22011;59.912;30.300;2023-03-26T12:09:23;99659.22;;;5.46;74.96
35918;BME280;22011;59.912;30.300;2023-03-26T12:11:58;99661.06;;;5.53;75.48
35918;BME280;22011;59.912;30.300;2023-03-26T12:14:29;99658.06;;;5.48;73.25
35918;BME280;22011;59.912;30.300;2023-03-26T12:17:00;99664.19;;;5.49;73.31
35918;BME280;22011;59.912;30.300;2023-03-26T12:19:34;99664.34;;;5.47;74.63
35918;BME280;22011;59.912;30.300;2023-03-26T12:22:05;99654.06;;;5.36;73.73
35918;BME280;22011;59.912;30.300;2023-03-26T12:24:34;99655.41;;;5.40;73.89
35918;BME280;22011;59.912;30.300;2023-03-26T12:27:20;99660.25;;;5.53;75.27
35918;BME280;22011;59.912;30.300;2023-03-26T12:29:50;99661.00;;;5.37;73.84
35918;BME280;22011;59.912;30.300;2023-03-26T12:32:17;99664.00;;;5.42;73.37
35918;BME280;22011;59.912;30.300;2023-03-26T12:34:46;99663.66;;;5.37;73.86
35918;BME280;22011;59.912;30.300;2023-03-26T12:37:35;99659.56;;;5.51;74.43
35918;BME280;22011;59.912;30.300;2023-03-26T12:40:06;99656.53;;;5.38;74.24
35918;BME280;22011;59.912;30.300;2023-03-26T12:42:39;99661.69;;;5.39;73.66
35918;BME280;22011;59.912;30.300;2023-03-26T12:45:12;99665.97;;;5.40;73.75
35918;BME280;22011;59.912;30.300;2023-03-26T12:47:40;99663.59;;;5.29;73.28
35918;BME280;22011;59.912;30.300;2023-03-26T12:50:12;99663.44;;;5.31;74.19
35918;BME280;22011;59.912;30.300;2023-03-26T12:52:50;99660.78;;;5.22;74.55
35918;BME280;22011;59.912;30.300;2023-03-26T12:55:29;99661.50;;;5.41;74.89
35918;BME280;22011;59.912;30.300;2023-03-26T12:58:16;99662.78;;;5.29;74.47
35918;BME280;22011;59.912;30.300;2023-03-26T13:00:55;99667.22;;;5.28;73.69
35918;BME280;22011;59.912;30.300;2023-03-26T13:03:37;99660.81;;;5.31;74.12
35918;BME280;22011;59.912;30.300;2023-03-26T13:06:24;99662.28;;;5.25;74.69
35918;BME280;22011;59.912;30.300;2023-03-26T13:09:19;99669.22;;;5.26;74.42
35918;BME280;22011;59.912;30.300;2023-03-26T13:11:57;99659.63;;;5.17;73.98
35918;BME280;22011;59.912;30.300;2023-03-26T13:17:33;99661.59;;;5.15;74.53
35918;BME280;22011;59.912;30.300;2023-03-26T13:20:07;99665.78;;;5.00;74.59
35918;BME280;22011;59.912;30.300;2023-03-26T13:22:44;99663.16;;;5.00;74.58
35918;BME280;22011;59.912;30.300;2023-03-26T13:25:28;99663.34;;;5.06;74.21
35918;BME280;22011;59.912;30.300;2023-03-26T13:28:14;99667.50;;;5.09;74.00
35918;BME280;22011;59.912;30.300;2023-03-26T13:30:50;99657.25;;;5.06;73.84
35918;BME280;22011;59.912;30.300;2023-03-26T13:33:31;99659.56;;;5.09;73.42
35918;BME280;22011;59.912;30.300;2023-03-26T13:36:07;99663.72;;;5.11;73.87
35918;BME280;22011;59.912;30.300;2023-03-26T13:38:44;99666.03;;;5.14;73.81
35918;BME280;22011;59.912;30.300;2023-03-26T13:41:26;99658.91;;;5.07;74.16
35918;BME280;22011;59.912;30.300;2023-03-26T13:44:04;99657.25;;;5.06;74.26
35918;BME280;22011;59.912;30.300;2023-03-26T13:46:39;99665.84;;;5.08;73.81
35918;BME280;22011;59.912;30.300;2023-03-26T13:49:11;99662.69;;;5.04;73.61
35918;BME280;22011;59.912;30.300;2023-03-26T13:51:44;99659.22;;;5.04;72.54
35918;BME280;22011;59.912;30.300;2023-03-26T13:54:16;99655.91;;;5.02;73.41
35918;BME280;22011;59.912;30.300;2023-03-26T13:56:51;99650.22;;;4.88;73.42
35918;BME280;22011;59.912;30.300;2023-03-26T13:59:25;99657.34;;;4.96;72.69
35918;BME280;22011;59.912;30.300;2023-03-26T14:01:59;99653.25;;;5.02;73.53
35918;BME280;22011;59.912;30.300;2023-03-26T14:04:29;99660.00;;;4.96;72.88
35918;BME280;22011;59.912;30.300;2023-03-26T14:07:02;99657.81;;;4.91;74.12
35918;BME280;22011;59.912;30.300;2023-03-26T14:09:37;99659.78;;;4.89;74.38
35918;BME280;22011;59.912;30.300;2023-03-26T14:12:20;99660.97;;;4.95;73.61
35918;BME280;22011;59.912;30.300;2023-03-26T14:14:54;99663.06;;;4.83;73.71
35918;BME280;22011;59.912;30.300;2023-03-26T14:17:27;99662.22;;;4.83;75.19
35918;BME280;22011;59.912;30.300;2023-03-26T14:23:24;99664.84;;;4.83;74.85
35918;BME280;22011;59.912;30.300;2023-03-26T14:26:13;99658.44;;;4.85;73.93
35918;BME280;22011;59.912;30.300;2023-03-26T14:29:27;99664.09;;;4.90;73.98
35918;BME280;22011;59.912;30.300;2023-03-26T14:32:23;99656.13;;;4.82;73.79
35918;BME280;22011;59.912;30.300;2023-03-26T14:38:05;99655.91;;;4.76;74.26
35918;BME280;22011;59.912;30.300;2023-03-26T14:40:55;99662.78;;;4.69;74.39
35918;BME280;22011;59.912;30.300;2023-03-26T14:44:03;99649.59;;;4.69;75.44